Time;durP1;ratioP1;P1;durP2;ratioP2;P2;SDS_P1;SDS_P2;PMS_P1;PMS_P2;Temp;Humidity;BMP_temperature;BMP_pressure;BME280_temperature;BME280_humidity;BME280_pressure;Samples;Min_cycle;Max_cycle;Signal;HPM_P1;HPM_P2
2022/09/29 00:00:25;;;;;;;10.63;9.57;;;8.40;99.90;;;;;;5032999;28;20838;-71
2022/09/29 00:02:52;;;;;;;11.27;8.90;;;8.40;99.90;;;;;;5032841;28;20191;-66
2022/09/29 00:05:18;;;;;;;10.60;8.77;;;8.40;99.90;;;;;;5031519;28;20415;-72
2022/09/29 00:07:43;;;;;;;9.53;8.57;;;8.40;99.90;;;;;;5032900;28;20963;-72
2022/09/29 00:10:09;;;;;;;10.27;9.27;;;8.40;99.90;;;;;;5031477;28;20216;-67
2022/09/29 00:12:35;;;;;;;11.53;9.73;;;8.40;99.90;;;;;;5031501;28;20188;-68
2022/09/29 00:15:01;;;;;;;10.33;8.70;;;8.40;99.90;;;;;;5032298;28;20180;-66
2022/09/29 00:17:26;;;;;;;12.30;9.70;;;8.50;99.90;;;;;;5032661;28;20175;-66
2022/09/29 00:19:52;;;;;;;11.40;9.90;;;8.50;99.90;;;;;;5032760;28;20177;-71
2022/09/29 00:22:17;;;;;;;14.10;9.87;;;8.50;99.90;;;;;;5032399;28;20168;-67
2022/09/29 00:24:43;;;;;;;13.23;9.67;;;8.50;99.90;;;;;;5031457;28;20443;-72
2022/09/29 00:27:09;;;;;;;9.80;8.80;;;8.50;99.90;;;;;;5032751;28;20198;-71
2022/09/29 00:29:34;;;;;;;12.70;10.70;;;8.50;99.90;;;;;;5032651;28;20174;-72
2022/09/29 00:32:00;;;;;;;11.73;10.60;;;8.60;99.90;;;;;;5032629;28;20167;-72
2022/09/29 00:34:26;;;;;;;12.77;10.60;;;8.60;99.90;;;;;;5031879;28;20169;-67
2022/09/29 00:36:51;;;;;;;11.50;9.47;;;8.60;99.90;;;;;;5032466;28;20190;-67
2022/09/29 00:39:17;;;;;;;11.50;10.40;;;8.60;99.90;;;;;;5032545;28;20167;-72
2022/09/29 00:41:43;;;;;;;11.70;10.50;;;8.60;99.90;;;;;;5032624;28;20167;-66
2022/09/29 00:44:11;;;;;;;11.53;10.33;;;8.60;99.90;;;;;;5031277;28;20198;-66
2022/09/29 00:46:48;;;;;;;11.67;10.33;;;8.60;99.90;;;;;;5032202;28;20203;-68
2022/09/29 00:49:37;;;;;;;12.50;10.20;;;8.60;99.90;;;;;;5035317;28;20716;-71
2022/09/29 00:52:19;;;;;;;10.63;9.27;;;8.60;99.90;;;;;;5036131;28;20733;-71
2022/09/29 00:54:54;;;;;;;11.63;10.40;;;8.60;99.90;;;;;;5035223;28;20391;-72
2022/09/29 00:57:24;;;;;;;12.20;9.97;;;8.60;99.90;;;;;;5035916;28;20378;-67
2022/09/29 01:00:00;;;;;;;13.27;10.90;;;8.60;99.90;;;;;;5036697;28;20383;-72
2022/09/29 01:02:27;;;;;;;11.73;10.10;;;8.60;99.90;;;;;;5035766;28;20500;-68
2022/09/29 01:04:54;;;;;;;12.07;10.47;;;8.60;99.90;;;;;;5034559;28;20468;-67
2022/09/29 01:07:26;;;;;;;14.13;11.03;;;8.50;99.90;;;;;;5035758;28;20445;-66
2022/09/29 01:09:55;;;;;;;11.43;10.27;;;8.50;99.90;;;;;;5035731;28;20802;-71
2022/09/29 01:12:22;;;;;;;12.87;10.70;;;8.60;99.90;;;;;;5035875;28;20381;-72
2022/09/29 01:14:49;;;;;;;14.50;11.67;;;8.50;99.90;;;;;;5034827;28;20403;-72
2022/09/29 01:17:16;;;;;;;14.63;9.80;;;8.50;99.90;;;;;;5035651;28;20953;-67
2022/09/29 01:19:57;;;;;;;13.50;11.07;;;8.50;99.90;;;;;;5035708;28;20527;-72
2022/09/29 01:22:39;;;;;;;13.87;12.40;;;8.50;99.90;;;;;;5035138;28;20501;-66
2022/09/29 01:25:23;;;;;;;18.57;12.57;;;8.40;99.90;;;;;;5034805;28;20505;-66
2022/09/29 01:28:14;;;;;;;15.03;11.63;;;8.40;99.90;;;;;;5035490;28;20429;-72
2022/09/29 01:30:48;;;;;;;13.67;10.77;;;8.40;99.90;;;;;;5035150;28;20412;-72
2022/09/29 01:33:22;;;;;;;14.20;12.50;;;8.30;99.90;;;;;;5035310;28;20764;-71
2022/09/29 01:36:17;;;;;;;14.93;11.97;;;8.40;99.90;;;;;;5033481;28;20407;-72
2022/09/29 01:38:55;;;;;;;12.97;11.50;;;8.40;99.90;;;;;;5034748;28;20437;-72
2022/09/29 01:41:37;;;;;;;14.00;11.40;;;8.40;99.90;;;;;;5035142;28;20392;-72
2022/09/29 01:44:13;;;;;;;14.83;12.00;;;8.40;99.90;;;;;;5034474;28;20406;-71
2022/09/29 01:46:45;;;;;;;15.33;12.10;;;8.50;99.90;;;;;;5035000;28;20452;-72
2022/09/29 01:49:12;;;;;;;13.70;12.27;;;8.50;99.90;;;;;;5034962;28;20399;-70
2022/09/29 01:51:51;;;;;;;16.50;14.20;;;8.60;99.90;;;;;;5035036;28;20960;-66
2022/09/29 01:54:43;;;;;;;17.57;12.13;;;8.60;99.90;;;;;;5034330;28;20894;-66
2022/09/29 01:57:35;;;;;;;13.83;11.87;;;8.60;99.90;;;;;;5033658;28;20489;-72
2022/09/29 02:00:09;;;;;;;14.17;12.70;;;8.50;99.90;;;;;;5033462;28;20758;-71
2022/09/29 02:02:53;;;;;;;14.47;12.37;;;8.60;99.90;;;;;;5034767;28;20871;-68
2022/09/29 02:05:25;;;;;;;16.93;13.33;;;8.60;99.90;;;;;;5033942;28;20398;-66
2022/09/29 02:07:53;;;;;;;13.80;12.30;;;8.60;99.90;;;;;;5034676;28;20471;-72
2022/09/29 02:10:24;;;;;;;16.27;13.37;;;8.50;99.90;;;;;;5034746;28;20875;-66
2022/09/29 02:12:53;;;;;;;17.20;12.57;;;8.60;99.90;;;;;;5034625;28;20421;-66
2022/09/29 02:15:25;;;;;;;16.20;13.60;;;8.70;99.90;;;;;;5033202;28;20973;-67
2022/09/29 02:17:56;;;;;;;14.00;12.23;;;8.70;99.90;;;;;;5034517;28;20797;-67
2022/09/29 02:20:23;;;;;;;16.33;13.17;;;8.70;99.90;;;;;;5033286;28;20749;-72
2022/09/29 02:22:49;;;;;;;16.17;13.00;;;8.70;99.90;;;;;;5034326;28;20410;-66
2022/09/29 02:25:17;;;;;;;15.83;13.37;;;8.70;99.90;;;;;;5033609;28;20410;-68
2022/09/29 02:27:44;;;;;;;14.53;12.70;;;8.70;99.90;;;;;;5034365;28;20206;-71
2022/09/29 02:30:11;;;;;;;18.50;14.07;;;8.70;99.90;;;;;;5034295;28;20369;-71
2022/09/29 02:32:37;;;;;;;15.90;13.40;;;8.70;99.90;;;;;;5033575;28;20406;-71
2022/09/29 02:35:07;;;;;;;18.40;13.20;;;8.70;99.90;;;;;;5033515;28;20399;-67
2022/09/29 02:37:53;;;;;;;16.33;12.50;;;8.70;99.90;;;;;;5034066;28;20875;-72
2022/09/29 02:40:36;;;;;;;14.67;12.47;;;8.80;99.90;;;;;;5032853;28;20386;-71
2022/09/29 02:43:27;;;;;;;15.30;12.23;;;8.80;99.90;;;;;;5034143;28;20973;-72
2022/09/29 02:46:13;;;;;;;15.47;12.93;;;8.80;99.90;;;;;;5033299;28;20467;-68
2022/09/29 02:49:16;;;;;;;16.63;12.90;;;8.80;99.90;;;;;;5033942;28;20409;-67
2022/09/29 02:51:48;;;;;;;16.80;13.43;;;8.80;99.90;;;;;;5033236;28;20421;-71
2022/09/29 02:54:47;;;;;;;15.40;12.40;;;8.80;99.90;;;;;;5033128;28;20405;-72
2022/09/29 02:57:33;;;;;;;16.93;12.63;;;8.80;99.90;;;;;;5033502;28;20417;-71
2022/09/29 03:00:11;;;;;;;19.80;14.57;;;8.70;99.90;;;;;;5033664;28;20399;-73
2022/09/29 03:02:39;;;;;;;15.47;13.10;;;8.70;99.90;;;;;;5033615;28;20472;-72
2022/09/29 03:05:08;;;;;;;18.57;14.67;;;8.70;99.90;;;;;;5033058;28;20467;-72
2022/09/29 03:07:35;;;;;;;17.80;12.87;;;8.80;99.90;;;;;;5032976;28;20484;-70
2022/09/29 03:10:01;;;;;;;15.37;12.13;;;8.70;99.90;;;;;;5033323;28;20907;-67
2022/09/29 03:12:27;;;;;;;17.43;14.67;;;8.80;99.90;;;;;;5033450;28;20420;-66
2022/09/29 03:14:52;;;;;;;14.70;13.10;;;8.80;99.90;;;;;;5032723;28;20191;-72
2022/09/29 03:17:18;;;;;;;16.90;13.37;;;8.70;99.90;;;;;;5032427;28;20516;-67
2022/09/29 03:19:44;;;;;;;15.40;12.13;;;8.70;99.90;;;;;;5033398;28;20186;-67
2022/09/29 03:22:09;;;;;;;17.87;13.57;;;8.70;99.90;;;;;;5033360;28;20640;-72
2022/09/29 03:24:35;;;;;;;15.63;12.57;;;8.70;99.90;;;;;;5032626;28;20171;-72
2022/09/29 03:27:01;;;;;;;13.87;12.47;;;8.70;99.90;;;;;;5032752;28;20575;-67
2022/09/29 03:29:26;;;;;;;19.63;12.57;;;8.70;99.90;;;;;;5033174;28;20250;-67
2022/09/29 03:31:52;;;;;;;18.37;13.93;;;8.70;99.90;;;;;;5033179;28;20877;-67
2022/09/29 03:34:18;;;;;;;19.70;13.13;;;8.70;99.90;;;;;;5032565;28;20609;-72
2022/09/29 03:36:43;;;;;;;17.37;13.33;;;8.70;99.90;;;;;;5033074;28;20205;-67
2022/09/29 03:39:09;;;;;;;18.03;13.70;;;8.80;99.90;;;;;;5033283;28;20189;-72
2022/09/29 03:41:34;;;;;;;25.10;16.37;;;8.80;99.90;;;;;;5033038;28;20177;-72
2022/09/29 03:44:00;;;;;;;18.40;13.70;;;8.80;99.90;;;;;;5032269;28;20189;-67
2022/09/29 03:46:26;;;;;;;15.30;11.83;;;8.80;99.90;;;;;;5032575;28;20204;-67
2022/09/29 03:48:52;;;;;;;17.17;13.10;;;8.90;99.90;;;;;;5032852;28;20167;-72
2022/09/29 03:51:18;;;;;;;15.73;11.73;;;8.80;99.90;;;;;;5033058;28;20175;-67
2022/09/29 03:53:43;;;;;;;20.13;13.70;;;8.80;99.90;;;;;;5032467;28;20841;-67
2022/09/29 03:56:09;;;;;;;14.97;13.00;;;8.90;99.90;;;;;;5032731;28;20607;-66
2022/09/29 03:58:35;;;;;;;19.40;13.23;;;8.80;99.90;;;;;;5032875;28;20166;-71
2022/09/29 04:01:00;;;;;;;15.17;12.70;;;8.90;99.90;;;;;;5031738;28;20175;-66
2022/09/29 04:03:27;;;;;;;16.40;14.00;;;8.80;99.90;;;;;;5032532;28;20274;-67
2022/09/29 04:05:53;;;;;;;20.10;13.83;;;8.70;99.90;;;;;;5031734;28;20199;-71
2022/09/29 04:08:18;;;;;;;17.87;12.70;;;8.70;99.90;;;;;;5032818;28;20421;-73
2022/09/29 04:10:47;;;;;;;16.90;13.17;;;8.70;99.90;;;;;;5032802;28;20652;-71
2022/09/29 04:13:13;;;;;;;16.70;12.70;;;8.70;99.90;;;;;;5032871;28;20248;-67
2022/09/29 04:15:39;;;;;;;16.07;13.17;;;8.70;99.90;;;;;;5032101;28;20502;-72
2022/09/29 04:18:05;;;;;;;17.63;13.43;;;8.60;99.90;;;;;;5032702;28;20675;-67
2022/09/29 04:20:30;;;;;;;19.00;13.77;;;8.60;99.90;;;;;;5032737;28;20182;-72
2022/09/29 04:22:56;;;;;;;16.17;13.50;;;8.60;99.90;;;;;;5033581;28;20906;-66
2022/09/29 04:25:22;;;;;;;17.63;12.80;;;8.60;99.90;;;;;;5035320;28;20188;-72
2022/09/29 04:27:48;;;;;;;18.70;14.87;;;8.60;99.90;;;;;;5036446;28;20200;-71
2022/09/29 04:30:14;;;;;;;25.43;14.70;;;8.60;99.90;;;;;;5036461;28;20635;-72
2022/09/29 04:32:40;;;;;;;17.90;13.57;;;8.70;99.90;;;;;;5036587;28;20189;-67
2022/09/29 04:35:06;;;;;;;17.57;13.77;;;8.70;99.90;;;;;;5035759;28;20422;-71
2022/09/29 04:37:31;;;;;;;17.87;12.97;;;8.60;99.90;;;;;;5036365;28;20601;-66
2022/09/29 04:39:57;;;;;;;17.53;12.40;;;8.70;99.90;;;;;;5036368;28;20474;-72
2022/09/29 04:42:22;;;;;;;17.03;12.17;;;8.60;99.90;;;;;;5036198;28;20244;-67
2022/09/29 04:44:48;;;;;;;16.17;12.20;;;8.60;99.90;;;;;;5034886;28;20166;-73
2022/09/29 04:47:14;;;;;;;22.53;13.30;;;8.50;99.90;;;;;;5036162;28;20251;-67
2022/09/29 04:49:40;;;;;;;21.10;13.93;;;8.50;99.90;;;;;;5036296;28;20659;-66
2022/09/29 04:52:05;;;;;;;18.80;13.03;;;8.50;99.90;;;;;;5036134;28;20174;-67
2022/09/29 04:54:33;;;;;;;18.17;13.30;;;8.40;99.90;;;;;;5035230;28;20163;-67
2022/09/29 04:57:00;;;;;;;18.43;13.40;;;8.40;99.90;;;;;;5036059;28;20173;-72
2022/09/29 04:59:28;;;;;;;17.30;13.67;;;8.40;99.90;;;;;;5035963;28;20391;-72
2022/09/29 05:01:54;;;;;;;18.27;14.30;;;8.40;99.90;;;;;;5035485;28;20423;-67
2022/09/29 05:04:19;;;;;;;19.30;14.73;;;8.40;99.90;;;;;;5035151;28;20472;-67
2022/09/29 05:06:45;;;;;;;20.37;14.00;;;8.40;99.90;;;;;;5035575;28;20192;-72
2022/09/29 05:09:11;;;;;;;21.27;14.73;;;8.40;99.90;;;;;;5034817;28;20174;-70
2022/09/29 05:11:36;;;;;;;19.83;14.23;;;8.40;99.90;;;;;;5035776;28;20176;-67
2022/09/29 05:14:02;;;;;;;21.10;13.73;;;8.40;99.90;;;;;;5035068;28;20201;-72
2022/09/29 05:16:28;;;;;;;19.00;14.47;;;8.40;99.90;;;;;;5035631;28;20195;-73
2022/09/29 05:18:54;;;;;;;21.60;15.10;;;8.50;99.90;;;;;;5035598;28;20263;-72
2022/09/29 05:21:19;;;;;;;19.63;12.40;;;8.40;99.90;;;;;;5035171;28;20256;-66
2022/09/29 05:23:45;;;;;;;25.00;13.67;;;8.30;99.90;;;;;;5034721;28;20183;-67
2022/09/29 05:26:12;;;;;;;22.63;13.90;;;8.40;99.90;;;;;;5035353;28;20191;-72
2022/09/29 05:28:42;;;;;;;20.07;13.37;;;8.40;99.90;;;;;;5035401;28;20210;-67
2022/09/29 05:31:08;;;;;;;24.13;14.37;;;8.40;99.90;;;;;;5035572;28;20405;-66
2022/09/29 05:33:35;;;;;;;23.17;13.47;;;8.30;99.90;;;;;;5035183;28;20846;-73
2022/09/29 05:36:06;;;;;;;17.57;13.20;;;8.40;99.90;;;;;;5033857;28;20943;-66
2022/09/29 05:38:32;;;;;;;18.40;13.00;;;8.40;99.90;;;;;;5034618;28;20965;-72
2022/09/29 05:41:02;;;;;;;22.67;15.10;;;8.50;99.90;;;;;;5034185;28;20415;-67
2022/09/29 05:43:28;;;;;;;19.20;13.10;;;8.50;99.90;;;;;;5033658;28;20425;-67
2022/09/29 05:46:02;;;;;;;18.13;13.17;;;8.50;99.90;;;;;;5033579;28;20944;-67
2022/09/29 05:48:31;;;;;;;18.97;13.40;;;8.60;99.90;;;;;;5033934;28;20176;-72
2022/09/29 05:50:58;;;;;;;18.17;14.23;;;8.50;99.90;;;;;;5033650;28;20438;-71
2022/09/29 05:53:24;;;;;;;21.77;13.57;;;8.50;99.90;;;;;;5034842;28;20409;-66
2022/09/29 05:55:51;;;;;;;23.20;14.30;;;8.50;99.90;;;;;;5033860;28;20775;-71
2022/09/29 05:58:17;;;;;;;15.37;11.80;;;8.60;99.90;;;;;;5034902;28;20414;-66
2022/09/29 06:00:43;;;;;;;22.73;12.70;;;8.60;99.90;;;;;;5034877;28;20390;-67
2022/09/29 06:03:09;;;;;;;18.70;12.60;;;8.60;99.90;;;;;;5033790;28;20613;-71
2022/09/29 06:05:37;;;;;;;22.83;14.60;;;8.60;99.90;;;;;;5034007;28;20736;-66
2022/09/29 06:08:04;;;;;;;14.97;11.30;;;8.60;99.90;;;;;;5034691;28;20203;-66
2022/09/29 06:10:30;;;;;;;19.97;13.97;;;8.60;99.90;;;;;;5033375;28;20981;-65
2022/09/29 06:12:56;;;;;;;16.40;12.87;;;8.60;99.90;;;;;;5034124;28;20407;-70
2022/09/29 06:15:22;;;;;;;18.47;13.20;;;8.60;99.90;;;;;;5033795;28;20423;-66
2022/09/29 06:17:54;;;;;;;20.23;12.30;;;8.60;99.90;;;;;;5033595;28;20203;-66
2022/09/29 06:20:20;;;;;;;18.83;13.23;;;8.60;99.90;;;;;;5034892;28;20401;-66
2022/09/29 06:22:46;;;;;;;17.33;12.73;;;8.60;99.90;;;;;;5034453;28;20403;-67
2022/09/29 06:25:12;;;;;;;19.63;13.73;;;8.60;99.90;;;;;;5033575;28;20279;-68
2022/09/29 06:27:37;;;;;;;21.23;13.50;;;8.60;99.90;;;;;;5033166;28;20546;-66
2022/09/29 06:30:04;;;;;;;19.07;13.63;;;8.60;99.90;;;;;;5034054;28;20172;-71
2022/09/29 06:32:30;;;;;;;20.80;13.97;;;8.60;99.90;;;;;;5034361;28;20172;-67
2022/09/29 06:37:45;;;;;;;17.87;13.83;;;8.60;99.90;;;;;;5034275;28;20221;-66
2022/09/29 06:40:11;;;;;;;20.00;13.07;;;8.60;99.90;;;;;;5034139;28;20487;-66
2022/09/29 06:42:37;;;;;;;18.87;13.80;;;8.60;99.90;;;;;;5034057;28;20433;-67
2022/09/29 06:45:03;;;;;;;20.07;13.93;;;8.60;99.90;;;;;;5033243;28;20418;-67
2022/09/29 06:47:29;;;;;;;20.70;13.77;;;8.70;99.90;;;;;;5032267;28;20982;-66
2022/09/29 06:49:56;;;;;;;20.37;14.53;;;8.70;99.90;;;;;;5033292;28;20400;-70
2022/09/29 06:52:22;;;;;;;18.97;13.87;;;8.70;99.90;;;;;;5034002;28;20402;-73
2022/09/29 06:54:48;;;;;;;22.57;14.70;;;8.90;99.90;;;;;;5033123;28;20760;-67
2022/09/29 06:57:13;;;;;;;19.73;15.90;;;8.90;99.90;;;;;;5033771;28;20675;-71
2022/09/29 06:59:39;;;;;;;20.00;13.67;;;8.90;99.90;;;;;;5033761;28;20163;-71
2022/09/29 07:02:05;;;;;;;23.57;15.27;;;8.90;99.90;;;;;;5033666;28;20195;-66
2022/09/29 07:04:31;;;;;;;19.53;14.03;;;8.90;99.90;;;;;;5033112;28;20689;-72
2022/09/29 07:06:56;;;;;;;19.00;13.13;;;8.90;99.90;;;;;;5031994;28;20455;-73
2022/09/29 07:09:22;;;;;;;16.80;12.73;;;8.90;99.90;;;;;;5032446;28;20195;-67
2022/09/29 07:11:50;;;;;;;22.27;14.40;;;8.90;99.90;;;;;;5033652;28;20639;-73
2022/09/29 07:14:18;;;;;;;23.03;13.60;;;9.00;99.90;;;;;;5032798;28;20210;-71
2022/09/29 07:16:46;;;;;;;25.03;16.30;;;9.00;99.90;;;;;;5033418;28;20432;-66
2022/09/29 07:19:11;;;;;;;19.53;13.53;;;9.10;99.90;;;;;;5033505;28;20471;-71
2022/09/29 07:21:37;;;;;;;21.70;13.77;;;9.20;99.90;;;;;;5033244;28;20489;-67
2022/09/29 07:24:02;;;;;;;20.07;14.13;;;9.30;99.90;;;;;;5032065;28;20184;-66
2022/09/29 07:26:28;;;;;;;18.47;13.10;;;9.30;99.90;;;;;;5033310;28;20222;-67
2022/09/29 07:28:54;;;;;;;18.40;13.37;;;9.30;99.90;;;;;;5033394;28;20599;-72
2022/09/29 07:31:21;;;;;;;21.20;15.53;;;9.20;99.90;;;;;;5032290;28;20552;-72
2022/09/29 07:33:48;;;;;;;20.37;15.50;;;9.20;99.90;;;;;;5032638;28;20574;-72
2022/09/29 07:36:16;;;;;;;17.47;14.20;;;9.20;99.90;;;;;;5033161;28;20944;-71
2022/09/29 07:38:45;;;;;;;21.30;13.67;;;9.20;99.90;;;;;;5031937;28;20415;-66
2022/09/29 07:41:11;;;;;;;21.53;14.73;;;9.20;99.90;;;;;;5031895;28;20391;-68
2022/09/29 07:43:37;;;;;;;22.60;15.17;;;9.30;99.90;;;;;;5030685;28;20426;-73
2022/09/29 07:46:03;;;;;;;29.70;15.63;;;9.40;99.90;;;;;;5031630;28;20233;-72
2022/09/29 07:48:31;;;;;;;19.57;14.77;;;9.40;99.90;;;;;;5033135;28;20511;-67
2022/09/29 07:51:11;;;;;;;21.60;14.27;;;9.30;99.90;;;;;;5033065;28;20409;-67
2022/09/29 07:53:37;;;;;;;21.87;14.00;;;9.40;99.90;;;;;;5032324;28;20412;-71
2022/09/29 07:56:11;;;;;;;25.17;14.77;;;9.50;99.90;;;;;;5032868;28;20464;-69
2022/09/29 07:58:38;;;;;;;20.67;15.10;;;9.60;99.90;;;;;;5035092;28;20766;-74
2022/09/29 08:01:09;;;;;;;19.60;13.90;;;9.70;99.90;;;;;;5036653;28;20405;-70
2022/09/29 08:03:39;;;;;;;19.37;14.70;;;9.80;99.90;;;;;;5035568;28;20411;-75
2022/09/29 08:06:06;;;;;;;21.10;12.67;;;9.90;99.90;;;;;;5036766;28;20404;-71
2022/09/29 08:08:35;;;;;;;21.17;12.43;;;9.90;99.90;;;;;;5037202;28;20393;-73
2022/09/29 08:11:13;;;;;;;19.00;13.50;;;10.00;99.90;;;;;;5037063;28;20401;-75
2022/09/29 08:13:39;;;;;;;17.30;12.97;;;10.00;99.90;;;;;;5036260;28;20394;-76
2022/09/29 08:16:07;;;;;;;22.30;11.80;;;10.00;99.90;;;;;;5036660;28;20783;-73
2022/09/29 08:18:34;;;;;;;20.10;12.80;;;10.10;99.90;;;;;;5035567;28;20389;-77
2022/09/29 08:21:00;;;;;;;17.03;11.73;;;10.10;99.90;;;;;;5036235;28;20429;-74
2022/09/29 08:23:26;;;;;;;15.00;12.03;;;10.10;99.90;;;;;;5035190;28;20446;-76
2022/09/29 08:26:03;;;;;;;15.33;13.00;;;10.10;99.90;;;;;;5036145;28;20426;-76
2022/09/29 08:28:31;;;;;;;14.97;10.10;;;10.20;99.90;;;;;;5036500;28;20421;-76
2022/09/29 08:31:04;;;;;;;19.93;10.13;;;10.20;99.90;;;;;;5036820;28;20376;-76
2022/09/29 08:33:30;;;;;;;11.33;10.07;;;10.20;99.90;;;;;;5036487;28;20402;-76
2022/09/29 08:35:59;;;;;;;10.83;9.50;;;10.20;99.90;;;;;;5036191;28;20421;-76
2022/09/29 08:38:26;;;;;;;12.93;9.63;;;10.20;99.90;;;;;;5036207;28;20403;-76
2022/09/29 08:40:55;;;;;;;10.50;9.30;;;10.20;99.90;;;;;;5035517;28;20973;-75
2022/09/29 08:43:32;;;;;;;15.60;8.47;;;10.20;99.90;;;;;;5036570;28;20943;-74
2022/09/29 08:46:16;;;;;;;11.40;9.30;;;10.20;99.90;;;;;;5036004;28;20469;-75
2022/09/29 08:48:44;;;;;;;8.83;7.93;;;10.30;99.90;;;;;;5036557;28;20417;-75
2022/09/29 08:51:24;;;;;;;10.27;8.50;;;10.20;99.90;;;;;;5035539;28;20415;-75
2022/09/29 08:53:53;;;;;;;9.20;7.03;;;10.20;99.90;;;;;;5035825;28;20383;-75
2022/09/29 08:56:19;;;;;;;8.83;7.80;;;10.20;99.90;;;;;;5036169;28;20417;-76
2022/09/29 08:58:45;;;;;;;11.03;6.47;;;10.20;99.90;;;;;;5035956;28;20388;-74
2022/09/29 09:01:47;;;;;;;8.30;7.33;;;10.20;99.90;;;;;;5036572;28;20377;-74
2022/09/29 09:04:49;;;;;;;8.43;6.80;;;10.30;99.90;;;;;;5035557;28;20189;-74
2022/09/29 09:07:45;;;;;;;8.40;6.47;;;10.30;99.90;;;;;;5034188;28;20611;-73
2022/09/29 09:10:20;;;;;;;7.33;6.40;;;10.20;99.90;;;;;;5035768;28;20430;-75
2022/09/29 09:13:10;;;;;;;6.70;6.03;;;10.20;99.90;;;;;;5035118;28;20425;-72
2022/09/29 09:15:53;;;;;;;7.20;5.63;;;10.20;99.90;;;;;;5035172;28;20425;-72
2022/09/29 09:18:47;;;;;;;7.70;5.37;;;10.20;99.90;;;;;;5035706;28;20402;-73
2022/09/29 09:21:16;;;;;;;6.73;5.53;;;10.30;99.90;;;;;;5036100;28;20381;-73
2022/09/29 09:24:21;;;;;;;6.40;5.80;;;10.40;99.90;;;;;;5035064;28;20960;-74
2022/09/29 09:26:47;;;;;;;6.90;5.70;;;10.40;99.90;;;;;;5033493;28;20461;-76
2022/09/29 09:29:36;;;;;;;7.07;6.13;;;10.40;99.90;;;;;;5035400;28;20404;-71
2022/09/29 09:32:04;;;;;;;7.00;6.30;;;10.50;99.90;;;;;;5035299;28;20397;-73
2022/09/29 09:34:39;;;;;;;7.10;6.07;;;10.50;99.90;;;;;;5033466;28;20408;-74
2022/09/29 09:37:38;;;;;;;6.47;5.87;;;10.60;1.00;;;;;;5033582;28;20748;-70
2022/09/29 09:40:10;;;;;;;7.10;5.80;;;10.60;99.90;;;;;;5035319;28;20377;-70
2022/09/29 09:42:41;;;;;;;6.37;5.50;;;10.60;99.90;;;;;;5033773;28;20901;-70
2022/09/29 09:45:13;;;;;;;7.60;6.20;;;10.60;99.90;;;;;;5034550;28;20793;-73
2022/09/29 09:47:49;;;;;;;5.57;5.07;;;10.60;99.90;;;;;;5035233;28;20439;-71
2022/09/29 09:50:18;;;;;;;7.30;5.60;;;10.70;99.90;;;;;;5035464;28;20373;-72
2022/09/29 09:52:50;;;;;;;7.17;5.60;;;10.70;99.90;;;;;;5035100;28;20463;-76
2022/09/29 09:55:20;;;;;;;6.17;4.97;;;10.70;99.90;;;;;;5034080;28;20389;-73
2022/09/29 09:57:50;;;;;;;5.23;4.73;;;10.70;99.90;;;;;;5034186;28;20422;-70
2022/09/29 10:00:43;;;;;;;7.33;5.40;;;10.70;99.90;;;;;;5035302;28;20414;-72
2022/09/29 10:03:11;;;;;;;5.40;4.83;;;10.60;99.90;;;;;;5035021;28;20934;-72
2022/09/29 10:05:40;;;;;;;5.20;4.40;;;10.50;99.90;;;;;;5034379;28;20435;-73
2022/09/29 10:08:11;;;;;;;6.00;5.00;;;10.50;99.90;;;;;;5033867;28;20795;-70
2022/09/29 10:10:40;;;;;;;6.27;5.27;;;10.50;99.90;;;;;;5035045;28;20897;-69
2022/09/29 10:13:11;;;;;;;4.43;4.03;;;10.50;99.90;;;;;;5034863;28;20456;-73
2022/09/29 10:16:06;;;;;;;7.70;5.23;;;10.60;99.90;;;;;;5032361;28;20441;-73
2022/09/29 10:18:39;;;;;;;5.70;4.50;;;10.60;99.90;;;;;;5033886;28;20389;-71
2022/09/29 10:21:22;;;;;;;7.67;4.63;;;10.60;99.90;;;;;;5033899;28;20434;-71
2022/09/29 10:23:55;;;;;;;4.43;4.03;;;10.50;99.90;;;;;;5034123;28;20402;-71
2022/09/29 10:26:27;;;;;;;5.63;4.50;;;10.50;99.90;;;;;;5033389;28;20484;-73
2022/09/29 10:29:15;;;;;;;3.80;3.47;;;10.50;99.90;;;;;;5034707;28;20441;-71
2022/09/29 10:31:42;;;;;;;4.67;4.37;;;10.40;99.90;;;;;;5034310;28;20403;-74
2022/09/29 10:34:12;;;;;;;5.00;4.40;;;10.50;99.90;;;;;;5033430;28;20399;-72
2022/09/29 10:36:57;;;;;;;3.67;3.47;;;10.50;99.90;;;;;;5034396;28;20405;-71
2022/09/29 10:39:44;;;;;;;4.10;3.70;;;10.60;99.90;;;;;;5034473;28;20400;-72
2022/09/29 10:42:26;;;;;;;4.10;3.10;;;10.60;99.90;;;;;;5034549;28;20410;-72
2022/09/29 10:44:59;;;;;;;3.90;3.60;;;10.50;99.90;;;;;;5033704;28;20436;-70
2022/09/29 10:47:25;;;;;;;3.40;3.10;;;10.60;99.90;;;;;;5032920;28;20775;-73
2022/09/29 10:50:23;;;;;;;4.90;3.20;;;10.60;99.90;;;;;;5032813;28;20424;-71
2022/09/29 10:52:58;;;;;;;4.13;3.57;;;10.50;99.90;;;;;;5034092;28;20167;-71
2022/09/29 10:55:29;;;;;;;4.50;3.13;;;10.50;99.90;;;;;;5033369;28;20885;-71
2022/09/29 10:57:57;;;;;;;3.40;3.20;;;10.50;99.90;;;;;;5034146;28;20399;-73
2022/09/29 11:00:33;;;;;;;3.10;2.90;;;10.60;99.90;;;;;;5034094;28;20380;-72
2022/09/29 11:03:27;;;;;;;3.43;3.00;;;10.60;99.90;;;;;;5032607;28;20442;-71
2022/09/29 11:05:58;;;;;;;3.80;3.43;;;10.60;99.90;;;;;;5033539;28;21024;-72
2022/09/29 11:08:27;;;;;;;2.90;2.70;;;10.60;99.90;;;;;;5033833;28;20486;-72
2022/09/29 11:11:06;;;;;;;2.83;2.57;;;10.60;99.90;;;;;;5033709;28;20434;-71
2022/09/29 11:13:44;;;;;;;2.60;2.40;;;10.50;99.90;;;;;;5033789;28;20484;-71
2022/09/29 11:16:26;;;;;;;2.50;2.30;;;10.50;99.90;;;;;;5033858;28;20407;-71
2022/09/29 11:18:56;;;;;;;3.30;2.63;;;10.40;99.90;;;;;;5033873;28;20901;-71
2022/09/29 11:21:34;;;;;;;2.43;2.23;;;10.40;99.90;;;;;;5033756;28;20393;-72
2022/09/29 11:24:30;;;;;;;3.13;2.90;;;10.50;99.90;;;;;;5033178;28;20465;-72
2022/09/29 11:27:14;;;;;;;2.77;2.57;;;10.50;99.90;;;;;;5033815;28;20925;-71
2022/09/29 11:30:00;;;;;;;2.87;2.67;;;10.50;99.90;;;;;;5032774;28;20384;-73
2022/09/29 11:32:46;;;;;;;3.27;2.97;;;10.50;99.90;;;;;;5033430;28;20403;-73
2022/09/29 11:35:32;;;;;;;3.23;2.60;;;10.50;99.90;;;;;;5031647;28;20900;-73
2022/09/29 11:38:33;;;;;;;7.70;3.00;;;10.40;99.90;;;;;;5033553;28;20403;-75
2022/09/29 11:41:12;;;;;;;2.77;2.53;;;10.30;99.90;;;;;;5033505;28;20404;-73
2022/09/29 11:43:44;;;;;;;2.87;2.67;;;10.40;99.90;;;;;;5032745;28;20416;-73
2022/09/29 11:46:21;;;;;;;2.83;2.63;;;10.30;99.90;;;;;;5031983;28;20496;-72
2022/09/29 11:49:17;;;;;;;3.80;2.87;;;10.40;99.90;;;;;;5033122;28;20406;-71
2022/09/29 11:52:20;;;;;;;3.17;2.90;;;10.40;99.90;;;;;;5033317;28;20375;-71
2022/09/29 11:55:04;;;;;;;2.57;2.37;;;10.40;99.90;;;;;;5032563;28;20462;-73
2022/09/29 11:57:54;;;;;;;2.50;2.40;;;10.50;99.90;;;;;;5032049;28;20828;-74
2022/09/29 12:00:32;;;;;;;3.50;3.20;;;10.40;99.90;;;;;;5033300;28;20960;-71
2022/09/29 12:03:31;;;;;;;3.43;3.13;;;10.50;99.90;;;;;;5033174;28;20452;-72
2022/09/29 12:06:16;;;;;;;3.60;3.30;;;10.50;99.90;;;;;;5031865;28;20913;-73
2022/09/29 12:08:44;;;;;;;3.60;3.30;;;10.50;99.90;;;;;;5033412;28;20933;-75
2022/09/29 12:11:23;;;;;;;4.10;3.70;;;10.50;99.90;;;;;;5032321;28;20440;-73
2022/09/29 12:14:24;;;;;;;3.20;2.90;;;10.50;99.90;;;;;;5032544;28;20376;-73
2022/09/29 12:16:56;;;;;;;4.23;3.83;;;10.50;99.90;;;;;;5033036;28;20472;-74
2022/09/29 12:19:29;;;;;;;5.23;2.93;;;10.50;99.90;;;;;;5032062;28;20413;-73
2022/09/29 12:21:56;;;;;;;4.13;3.70;;;10.50;99.90;;;;;;5033031;28;20734;-72
2022/09/29 12:24:41;;;;;;;3.57;3.30;;;10.50;99.90;;;;;;5031861;28;20394;-74
2022/09/29 12:27:23;;;;;;;4.23;3.83;;;10.60;99.90;;;;;;5032967;28;20420;-71
2022/09/29 12:30:17;;;;;;;6.40;3.80;;;10.60;99.90;;;;;;5033002;28;20404;-74
2022/09/29 12:33:05;;;;;;;3.70;3.40;;;10.70;99.90;;;;;;5032077;28;20424;-73
2022/09/29 12:35:56;;;;;;;3.67;3.37;;;10.60;99.90;;;;;;5031039;28;20401;-73
2022/09/29 12:38:31;;;;;;;4.13;3.83;;;10.70;99.90;;;;;;5032950;28;20929;-73
2022/09/29 12:41:10;;;;;;;3.50;3.20;;;10.60;99.90;;;;;;5015615;28;20445;-74
2022/09/29 12:43:45;;;;;;;3.80;3.37;;;10.70;99.90;;;;;;5032483;28;20500;-78
2022/09/29 12:46:34;;;;;;;4.67;2.83;;;10.60;99.90;;;;;;5036513;28;20420;-74
2022/09/29 12:49:11;;;;;;;3.20;3.00;;;10.60;99.90;;;;;;5036687;28;20429;-73
2022/09/29 12:51:48;;;;;;;2.63;2.43;;;10.60;99.90;;;;;;5036518;28;20481;-73
2022/09/29 12:54:30;;;;;;;3.47;2.57;;;10.60;99.90;;;;;;5035800;28;20480;-75
2022/09/29 12:57:05;;;;;;;2.30;2.20;;;10.60;1.00;;;;;;5036304;28;20511;-74
2022/09/29 12:59:55;;;;;;;2.17;2.07;;;10.60;1.00;;;;;;5035882;28;20899;-75
2022/09/29 13:03:00;;;;;;;5.20;2.20;;;10.60;1.00;;;;;;5036112;28;20791;-76
2022/09/29 13:05:53;;;;;;;2.53;2.30;;;10.60;1.00;;;;;;5035609;28;20487;-72
2022/09/29 13:08:33;;;;;;;2.10;1.90;;;10.50;1.00;;;;;;5034800;28;20850;-73
2022/09/29 13:11:40;;;;;;;2.60;2.40;;;10.50;1.00;;;;;;5036447;28;20902;-74